Sonic Adventure (DX): Overall Rankings

Records: Times | Rings | Scores | Races | Bosses | Freestyle
Leaders: Times | Rings | Scores | Races | Bosses | Freestyle | Overall
Rank Order Asc Player Percent Points Date
1 Sonicspeedruner 98.2% 295 05-01-16
2 Gamepro011 98.1% 308 05-01-16
3 DarkPolarNight 96.1% 642 05-01-16
4 Jawzun 93.4% 1093 05-01-16
5 Dashjump 92.0% 1329 05-01-16
6 DarkspinesSonic 90.2% 1626 05-01-16
7 Avento128bits 89.9% 1679 05-01-16
8 ike6252 89.8% 1706 05-01-16
9 F-Man 87.9% 2019 05-01-16
10 Coolfansonic 84.9% 2521 05-01-16
11 HyperSonic7701 84.6% 2566 05-01-16
12 yoshifan 82.9% 2850 05-01-16
13 frankoredstrato 82.6% 2912 05-01-16
14 francisco 81.7% 3061 05-01-16
15 TheRealShadnic 81.7% 3065 05-01-16
16 Marth 81.3% 3127 05-01-16
17 InferSaime 80.1% 3331 05-01-16
18 PfoSonic 79.6% 3408 05-01-16
19 Paragod 79.2% 3472 05-01-16
20 THC98 78.2% 3647 05-01-16
21 Dawid8404 77.9% 3699 05-01-16
22 Stefan 75.9% 4026 05-01-16
23 RPGnutter 73.8% 4390 05-01-16
24 bertin 73.6% 4415 05-01-16
25 sonicam 71.4% 4783 05-01-16
26 drminus 70.1% 4994 05-01-16
27 Combo 65.5% 5780 05-01-16
28 SkyLights 64.3% 5966 05-01-16
29 xXMegaManXx 63.5% 6100 05-01-16
30 Diamond 62.5% 6279 05-01-16
31 Auriman1 60.1% 6670 05-01-16
31 GerbilSoft 60.1% 6670 05-01-16
33 OmegaDJ 60.1% 6671 05-01-16
34 magnum12 59.2% 6827 05-01-16
35 Thorn 57.2% 7171 05-01-16
36 P1 Pause 56.9% 7207 05-01-16
37 mike89 56.0% 7364 05-01-16
38 chainchumper 54.0% 7698 05-01-16
39 Dave Cramer 54.0% 7699 05-01-16
40 Groudon199 54.0% 7704 05-01-16
41 Parax 53.2% 7842 05-01-16
42 Shadow Jacky 52.8% 7899 05-01-16
43 Psymar 47.7% 8760 05-01-16
44 Arch 46.1% 9022 05-01-16
45 Chao_Fan 46.1% 9031 05-01-16
46 mauserman 45.4% 9145 05-01-16
47 Quartz 44.9% 9222 05-01-16
48 teamblackarms 44.0% 9382 05-01-16
49 Psyknux 43.4% 9474 05-01-16
50 James_Bertolli 43.1% 9535 05-01-16
51 NintenDan 42.7% 9586 05-01-16
52 Webber3000 42.1% 9691 05-01-16
53 Turbos 42.0% 9710 05-01-16
54 Ring Rush 41.7% 9754 05-01-16
55 Cream147 41.7% 9764 05-01-16
56 videogamemaster777 41.5% 9796 05-01-16
57 Fr3nZy 41.4% 9811 05-01-16
58 Siavash Tazari 41.1% 9855 05-01-16
59 buddychaos0415 40.7% 9922 05-01-16
60 SadisticMystic 40.0% 10044 05-01-16
61 eggFL 39.3% 10161 05-01-16
62 Redd 38.8% 10253 05-01-16
63 SB737 37.9% 10401 05-01-16
64 supersonic465 37.0% 10551 05-01-16
65 supersonicfan 36.6% 10608 05-01-16
66 FuzZerd 35.5% 10802 05-01-16
67 elecmouse101 34.7% 10932 05-01-16
68 Austinf 33.6% 11114 05-01-16
69 metanightmare22 33.4% 11156 05-01-16
70 Aitamen 33.0% 11214 05-01-16
71 dabestgamer 33.0% 11220 05-01-16
72 Cyan Ryan 32.9% 11235 05-01-16
73 MiStEr_ShAoLiN 32.9% 11243 05-01-16
74 Andrea Ritsu 31.9% 11402 05-01-16
75 itsPersonnal 31.8% 11421 05-01-16
76 Cybrax 31.0% 11556 05-01-16
77 SilvertheAlmighty 30.8% 11584 05-01-16
78 danieldude 30.7% 11600 05-01-16
79 VMU Player Banned 29.0% 11896 05-01-16
80 Staf 28.5% 11966 05-01-16
81 Omega Rafael Santos 28.5% 11980 05-01-16
82 The T 28.2% 12027 05-01-16
83 EngiNerd 27.9% 12082 05-01-16
84 lordmetalsonic 27.3% 12168 05-01-16
85 Hipertails12 26.9% 12241 05-01-16
86 welldooder64 26.8% 12266 05-01-16
87 GreatStar 26.5% 12312 05-01-16
88 Sondow 26.4% 12327 05-01-16
89 The Great Lord Mick 26.3% 12340 05-01-16
90 Mastakirby 26.2% 12365 05-01-16
91 LinksDarkArrows 26.1% 12372 05-01-16
92 Nimrod 25.8% 12430 05-01-16
93 Skylace 25.2% 12534 05-01-16
94 Rolken 23.7% 12772 05-01-16
95 Xia 22.0% 13057 05-01-16
96 Kogen Player Banned 22.0% 13060 05-01-16
97 a_moustache 22.0% 13064 05-01-16
98 Spinballwizard 21.9% 13080 05-01-16
99 Don 21.5% 13150 05-01-16
100 f0rever_zer0 21.5% 13154 05-01-16
101 Twilisailor 21.4% 13157 05-01-16
102 Cutiefox 21.3% 13177 05-01-16
103 Game_Complete 21.2% 13191 05-01-16
104 Miles9999 21.2% 13198 05-01-16
105 andres430 20.7% 13280 05-01-16
106 Cruizer 20.5% 13317 05-01-16
107 iSonicKid2K 20.3% 13342 05-01-16
108 SADXTryHard 20.0% 13392 05-01-16
109 GarnetPrincess 19.6% 13465 05-01-16
110 AxlThunder 18.9% 13579 05-01-16
111 knuckles_sonic8 18.6% 13626 05-01-16
112 KinkyCadence 18.2% 13696 05-01-16
113 The Knuckles Chao 18.1% 13716 05-01-16
114 Team_Yoshi 18.1% 13718 05-01-16
115 Termon 17.8% 13769 05-01-16
116 LittleBigness 17.7% 13777 05-01-16
117 FoxBoy 17.7% 13788 05-01-16
118 SonicWinDX 17.5% 13810 05-01-16
119 Drakodan 16.8% 13936 05-01-16
120 Sonic Singularity 15.7% 14121 05-01-16
121 Pokemonmaster888 15.6% 14131 05-01-16
122 BigAL49 14.6% 14302 05-01-16
123 SilverSonic 14.4% 14333 05-01-16
124 MPit08 14.4% 14341 05-01-16
125 WeegeeZV 14.2% 14368 05-01-16
126 Mo Player Banned 14.0% 14400 05-01-16
127 koinu93 13.9% 14423 05-01-16
128 Cod4Scopes 13.6% 14476 05-01-16
129 HyperSonic64 13.5% 14483 05-01-16
130 booo95 13.4% 14502 05-01-16
131 Jerzia 13.4% 14503 05-01-16
132 Chawkk 13.2% 14537 05-01-16
133 paulie9990 13.1% 14555 05-01-16
134 SuperSonic101 13.0% 14573 05-01-16
135 Hunters13 13.0% 14575 05-01-16
136 Maxinfamily 12.8% 14602 05-01-16
137 Kanimayo_Jp 12.6% 14646 05-01-16
138 BrokenArthritis 12.4% 14668 05-01-16
139 LilZero 12.4% 14672 05-01-16
139 PsyBorg 12.4% 14672 05-01-16
141 Flying Fox 12.4% 14673 05-01-16
142 Therio 11.9% 14757 05-01-16
143 sonicspeed 11.8% 14766 05-01-16
144 douglas 11.7% 14785 05-01-16
145 thewaytodawnnn 11.3% 14859 05-01-16
146 Matt_TY 11.3% 14861 05-01-16
147 Cooljay 10.7% 14959 05-01-16
148 joecoolgames 10.6% 14969 05-01-16
149 SeaWolf 10.6% 14977 05-01-16
150 videogamer1014 10.3% 15027 05-01-16
151 AC-Tygo 10.0% 15071 05-01-16
152 welshmoose05 10.0% 15077 05-01-16
153 TFEC Headshot 9.9% 15095 05-01-16
154 crazy1993 9.8% 15111 05-01-16
155 OddCook 9.7% 15120 05-01-16
156 Mcshuggets 9.6% 15142 05-01-16
157 niscool 9.3% 15193 05-01-16
158 imazor017 9.3% 15194 05-01-16
159 Mariobutch 9.2% 15211 05-01-16
160 nuckrieg 9.1% 15231 05-01-16
161 SonicAD 9.0% 15238 05-01-16
162 SirTobbii 8.9% 15265 05-01-16
163 Shadowthegreat 8.8% 15267 05-01-16
164 superjupi 8.8% 15273 05-01-16
165 iarebored 8.5% 15324 05-01-16
166 sonamyfan666 8.5% 15327 05-01-16
167 SaviourDC 8.5% 15328 05-01-16
168 SonicKnuckles 8.3% 15351 05-01-16
169 Werey 8.3% 15364 05-01-16
170 adf 8.0% 15406 05-01-16
171 SuperBlitzCraig 7.9% 15429 05-01-16
172 Megaman EXE565 7.8% 15445 05-01-16
173 ArcticDragon 7.7% 15454 05-01-16
174 Platformer 7.5% 15499 05-01-16
175 FocusSight64 7.4% 15516 05-01-16
176 ethmar 7.3% 15528 05-01-16
177 wheatrich 7.3% 15529 05-01-16
178 timpkmn89 7.3% 15534 05-01-16
179 Swift Hobo 7.2% 15535 05-01-16
180 Rickyman48 7.1% 15562 05-01-16
181 KitsuneYamaro 6.8% 15608 05-01-16
182 Triseena 6.7% 15623 05-01-16
183 CyberShadow 6.5% 15655 05-01-16
184 slade23 6.4% 15673 05-01-16
185 Starlight Sable 6.4% 15676 05-01-16
186 dShadow 6.3% 15690 05-01-16
187 IsisDazs 6.3% 15695 05-01-16
188 BlankTH 6.0% 15742 05-01-16
189 Monkeh 5.9% 15762 05-01-16
190 Richied 5.7% 15794 05-01-16
191 DaDude 5.6% 15804 05-01-16
191 SonicU260 5.6% 15804 05-01-16
193 Vicklaw 5.6% 15808 05-01-16
194 sonicd5 5.5% 15820 05-01-16
195 Zip 5.5% 15836 05-01-16
196 VeritasDL 5.1% 15888 05-01-16
197 Kirbymon30 5.1% 15892 05-01-16
198 tal39h 5.1% 15896 05-01-16
199 soniccoloursunleashed 4.8% 15937 05-01-16
200 Drflash55 4.8% 15945 05-01-16
201 Bass 4.7% 15963 05-01-16
202 Yish 4.7% 15965 05-01-16
203 neaolas 4.6% 15974 05-01-16
204 UninspiredUsername 4.6% 15986 05-01-16
205 zapp 4.6% 15987 05-01-16
206 Sonicsuperstar1 4.5% 15989 05-01-16
207 superiorsonic 4.5% 15995 05-01-16
208 Badlex727 4.4% 16005 05-01-16
209 gamefreak1292 4.4% 16007 05-01-16
210 Chaos_Overlord 4.1% 16058 05-01-16
211 TakaRikka 4.0% 16073 05-01-16
212 Valfore 3.9% 16090 05-01-16
213 ShinigamiMachine 3.8% 16110 05-01-16
214 Regano1000 3.7% 16122 05-01-16
215 MK 3.6% 16144 05-01-16
216 Ace747 3.5% 16158 05-01-16
217 Illidan 3.2% 16210 05-01-16
218 HHNNBBHHN 3.2% 16220 05-01-16
219 Venick409 3.1% 16227 05-01-16
220 Brian_pso 3.1% 16230 05-01-16
221 nman36 3.1% 16235 05-01-16
222 Sithwarrior26 3.1% 16237 05-01-16
223 Egor305 2.9% 16257 05-01-16
223 ingx24 2.9% 16257 05-01-16
225 TheChaosEmeraIds 2.9% 16264 05-01-16
226 Nickson98 2.9% 16271 05-01-16
226 SkyBon 2.9% 16271 05-01-16
228 FSSRandomvids 2.8% 16286 05-01-16
229 Fozer 2.7% 16289 05-01-16
230 sonic29887 2.7% 16301 05-01-16
231 Colomb_30 2.7% 16305 05-01-16
231 Wanamaker 2.7% 16305 05-01-16
233 dekki1234 2.6% 16308 05-01-16
234 Aiko 2.6% 16311 05-01-16
235 TheUltraBlur 2.6% 16312 05-01-16
236 1stKirbyever 2.6% 16317 05-01-16
237 TimTH 2.5% 16326 05-01-16
238 Cort_pso 2.3% 16358 05-01-16
238 Th4tN1nj4Turtl3 2.3% 16358 05-01-16
240 Doom-9 2.3% 16369 05-01-16
241 ieatatsonic 2.2% 16373 05-01-16
242 Mariosonic15 2.2% 16377 05-01-16
243 SonataSpinDash 2.2% 16381 05-01-16
244 MStitomix 2.1% 16390 05-01-16
245 HermitHelmet 2.1% 16397 05-01-16
246 SuperSonic71087 2.1% 16402 05-01-16
247 Got4n 2.0% 16409 05-01-16
248 Artie 2.0% 16415 05-01-16
249 Jose_15 2.0% 16421 05-01-16
249 Questionguy555 2.0% 16421 05-01-16
251 SuperSonicfan9595 1.8% 16442 05-01-16
252 djmat 1.8% 16445 05-01-16
253 sonicandamy 1.7% 16460 05-01-16
254 LancexExWx 1.7% 16465 05-01-16
255 son1cgu1tar 1.7% 16469 05-01-16
256 Paixii 1.7% 16471 05-01-16
257 Heroes_Hater 1.7% 16472 05-01-16
258 BallzeH 1.6% 16487 05-01-16
259 Jamixesa 1.5% 16496 05-01-16
260 BecauseWarAnvil 1.5% 16497 05-01-16
260 Mankster101 1.5% 16497 05-01-16
262 Crydio 1.5% 16504 05-01-16
263 SpiritDragon1995 1.4% 16514 05-01-16
264 Shanekilz 1.4% 16516 05-01-16
265 ReuelBrony 1.4% 16517 05-01-16
266 stanski 1.3% 16524 05-01-16
267 MarewBFN 1.3% 16527 05-01-16
268 Sonique Hedgehog 1.3% 16534 05-01-16
269 Blue Infamy 1.2% 16541 05-01-16
270 p0ker 1.2% 16542 05-01-16
271 ErrortheCucco 1.2% 16551 05-01-16
272 Rikum22 1.2% 16554 05-01-16
273 Arthas 1.1% 16559 05-01-16
274 sonic1001 1.1% 16563 05-01-16
275 WingedInsignia 1.1% 16569 05-01-16
276 AJSIV 1.1% 16570 05-01-16
277 syco1098 1.1% 16571 05-01-16
278 Sonic the Hedgehod16 1.0% 16575 05-01-16
279 sonicfan9 1.0% 16582 05-01-16
280 Calfd 1.0% 16584 05-01-16
281 BlackArmsShadow 0.9% 16592 05-01-16
282 themachoman202 0.9% 16596 05-01-16
283 shadowblast63 Player Banned 0.9% 16603 05-01-16
284 Greham Adelphis 0.9% 16604 05-01-16
285 Fivavoa 0.9% 16605 05-01-16
286 Mr. Jones 0.9% 16606 05-01-16
287 Ben1502 0.9% 16607 05-01-16
287 MastaToken 0.9% 16607 05-01-16
289 arcfx1985 0.8% 16609 05-01-16
289 darkstarblaze 0.8% 16609 05-01-16
291 ptorflaxendrosis 0.8% 16610 05-01-16
292 Gvozdevik 0.8% 16614 05-01-16
293 FlandreScarlet9999vr 0.8% 16616 05-01-16
293 Knuckles 0.8% 16616 05-01-16
295 Zeldocto 0.8% 16619 05-01-16
296 BeeAwwb 0.8% 16623 05-01-16
297 KaM Mark MaK 0.7% 16626 05-01-16
298 ShadouZaHejjihoggu 0.7% 16631 05-01-16
299 Sonic62 0.7% 16637 05-01-16
300 Sonic The Star 0.7% 16638 05-01-16
301 darkersupershadic 0.7% 16639 05-01-16
302 dragondragon18 0.6% 16642 05-01-16
303 SonicK100 0.6% 16643 05-01-16
304 Shadygamerfreak 0.6% 16644 05-01-16
304 Sogeking 0.6% 16644 05-01-16
306 Grady219 0.6% 16645 05-01-16
307 Sarger001 0.6% 16646 05-01-16
308 Jawaah 0.6% 16650 05-01-16
309 Antek 0.6% 16655 05-01-16
310 Klaus 0.6% 16657 05-01-16
311 SilverK 0.5% 16658 05-01-16
312 BioShadow 0.5% 16663 05-01-16
312 SpinDashMaster 0.5% 16663 05-01-16
314 Videogamer123 0.5% 16666 05-01-16
315 isaihtb11 0.4% 16681 05-01-16
315 oTaiIilLsS 0.4% 16681 05-01-16
317 OhNoes! 0.4% 16683 05-01-16
318 Mad Andy 0.4% 16685 05-01-16
318 zaktu40 0.4% 16685 05-01-16
320 S-MS32X-S 0.4% 16687 05-01-16
321 gaara1234 0.4% 16688 05-01-16
322 gamed00d 0.3% 16692 05-01-16
323 Mister_Slick 0.3% 16698 05-01-16
324 Sonic06Fan 0.3% 16702 05-01-16
325 Rush Hero 0.3% 16704 05-01-16
326 Iwannabelink 0.2% 16709 05-01-16
326 SonicMega167 0.2% 16709 05-01-16
328 sonknuck23 0.2% 16713 05-01-16
329 DanielTheFalcon 0.2% 16720 05-01-16
329 gamer1245 0.2% 16720 05-01-16
331 Burningskull123 0.1% 16728 05-01-16
332 Sonicontherun 0.1% 16738 05-01-16
333 Lil_Dude 0.0% 16742 05-01-16
334 antiwwe 0.0% 16744 05-01-16
335 Cbwade15 0.0% 16748 05-01-16
335 Genuine Hedgehog 0.0% 16748 05-01-16
337 Tyrouble 0.0% 16751 05-01-16
338 MegabombBlade 0.0% 16758 05-01-16
338 neji_hyuuga 0.0% 16758 05-01-16
338 Over 0.0% 16758 05-01-16
338 sdj6707 Player Banned 0.0% 16758 05-01-16
338 Tran Sonic Fan Player Banned 0.0% 16758 05-01-16

This page is using the New Data Table System. [FUTURE]

Game ID: 3 | Category ID: 10
Hits: 66,686 | Hits This Month: 11 | DB Calls: 21 | Mem Usage: 5.46 MB | Time: 0.22s | Printable

The Sonic Center v3.9
Copyright 2003-2011 by The Sonic Center Team.